Time;durP1;ratioP1;P1;durP2;ratioP2;P2;SDS_P1;SDS_P2;PMS_P1;PMS_P2;Temp;Humidity;BMP_temperature;BMP_pressure;BME280_temperature;BME280_humidity;BME280_pressure;Samples;Min_cycle;Max_cycle;Signal;HPM_P1;HPM_P2
2022/04/02 00:00:58;;;;;;;1.60;1.50;;;1.90;98.20;;;;;;5046985;28;20953;-72
2022/04/02 00:03:27;;;;;;;1.70;1.60;;;1.90;98.20;;;;;;5050425;28;20510;-72
2022/04/02 00:05:55;;;;;;;1.60;1.50;;;1.90;98.20;;;;;;5050234;28;20962;-72
2022/04/02 00:08:22;;;;;;;1.60;1.50;;;2.00;98.20;;;;;;5051324;28;20541;-74
2022/04/02 00:10:50;;;;;;;1.60;1.50;;;2.00;98.20;;;;;;5044049;28;21055;-73
2022/04/02 00:13:18;;;;;;;1.60;1.40;;;1.90;98.20;;;;;;5045535;28;20485;-73
2022/04/02 00:15:45;;;;;;;1.67;1.57;;;1.90;98.20;;;;;;5051493;28;20490;-73
2022/04/02 00:18:11;;;;;;;1.60;1.50;;;1.90;98.20;;;;;;5049635;28;20458;-73
2022/04/02 00:20:40;;;;;;;1.60;1.50;;;1.90;98.20;;;;;;5050095;28;20469;-73
2022/04/02 00:25:51;;;;;;;1.60;1.50;;;1.80;98.20;;;;;;5049890;28;20489;-73
2022/04/02 00:28:18;;;;;;;1.70;1.60;;;1.80;98.20;;;;;;5043025;28;20466;-73
2022/04/02 00:30:45;;;;;;;3.10;2.90;;;1.70;98.20;;;;;;5049388;28;20482;-72
2022/04/02 00:33:13;;;;;;;1.70;1.60;;;1.70;98.20;;;;;;5044031;28;20518;-72
2022/04/02 00:35:43;;;;;;;1.60;1.50;;;1.80;98.20;;;;;;5051153;28;20557;-72
2022/04/02 00:38:10;;;;;;;1.80;1.70;;;1.70;98.20;;;;;;5049498;28;20466;-72
2022/04/02 00:40:42;;;;;;;1.90;1.80;;;1.80;98.20;;;;;;5043888;28;20460;-73
2022/04/02 00:43:21;;;;;;;1.60;1.50;;;1.70;98.20;;;;;;5045476;28;20577;-72
2022/04/02 00:45:49;;;;;;;1.83;1.73;;;1.70;98.20;;;;;;5038066;28;20938;-72
2022/04/02 00:48:15;;;;;;;1.60;1.50;;;1.70;98.20;;;;;;5044211;28;20462;-73
2022/04/02 00:50:45;;;;;;;1.60;1.50;;;1.70;98.20;;;;;;5049310;28;20847;-73
2022/04/02 00:53:13;;;;;;;1.60;1.50;;;1.70;98.20;;;;;;5045704;28;20512;-73
2022/04/02 00:55:42;;;;;;;1.60;1.47;;;1.60;98.20;;;;;;5050171;28;20465;-72
2022/04/02 00:58:11;;;;;;;1.60;1.40;;;1.70;98.20;;;;;;5048655;28;20721;-73
2022/04/02 01:00:37;;;;;;;1.67;1.57;;;1.70;98.20;;;;;;5049026;28;20455;-73
2022/04/02 01:03:04;;;;;;;1.70;1.60;;;1.70;98.20;;;;;;5045606;28;20486;-73
2022/04/02 01:05:34;;;;;;;1.60;1.50;;;1.70;98.20;;;;;;5049970;28;20463;-73
2022/04/02 01:08:05;;;;;;;1.60;1.50;;;1.70;98.20;;;;;;5047290;28;20484;-73
2022/04/02 01:10:32;;;;;;;1.60;1.50;;;1.80;98.20;;;;;;5047316;28;20482;-73
2022/04/02 01:13:00;;;;;;;1.60;1.50;;;1.80;98.20;;;;;;5041703;28;20565;-73
2022/04/02 01:15:27;;;;;;;1.60;1.50;;;1.80;98.20;;;;;;5049463;28;20497;-73
2022/04/02 01:17:54;;;;;;;1.60;1.50;;;1.70;98.20;;;;;;5049682;28;20838;-73
2022/04/02 01:20:21;;;;;;;1.70;1.60;;;1.70;98.20;;;;;;5048024;28;20549;-74
2022/04/02 01:22:51;;;;;;;1.60;1.40;;;1.70;98.20;;;;;;5046037;28;20489;-73
2022/04/02 01:25:17;;;;;;;1.60;1.50;;;1.70;98.20;;;;;;5045260;28;20856;-73
2022/04/02 01:27:44;;;;;;;1.60;1.50;;;1.80;98.20;;;;;;5045996;28;20458;-73
2022/04/02 01:30:14;;;;;;;1.67;1.57;;;1.80;98.20;;;;;;5047373;28;20478;-73
2022/04/02 01:32:42;;;;;;;1.70;1.60;;;1.80;98.20;;;;;;5029032;28;20538;-73
2022/04/02 01:35:11;;;;;;;1.80;1.70;;;1.80;98.20;;;;;;5040042;28;20920;-73
2022/04/02 01:37:39;;;;;;;1.60;1.50;;;1.80;98.20;;;;;;5041577;28;20463;-73
2022/04/02 01:40:09;;;;;;;1.63;1.53;;;1.80;98.20;;;;;;5047346;28;20542;-73
2022/04/02 01:42:36;;;;;;;1.60;1.50;;;1.80;98.20;;;;;;5040498;28;20461;-73
2022/04/02 01:45:04;;;;;;;1.60;1.50;;;1.80;98.20;;;;;;5048323;28;20462;-73
2022/04/02 01:47:32;;;;;;;1.60;1.50;;;1.80;98.20;;;;;;5042498;28;21092;-73
2022/04/02 01:49:59;;;;;;;1.80;1.70;;;1.80;98.20;;;;;;5043172;28;20474;-73
2022/04/02 01:52:26;;;;;;;1.70;1.60;;;1.80;98.20;;;;;;5019876;28;20490;-73
2022/04/02 01:54:53;;;;;;;1.60;1.50;;;1.80;98.20;;;;;;5040226;28;20470;-73
2022/04/02 01:57:23;;;;;;;1.60;1.40;;;1.80;98.20;;;;;;5047153;28;20493;-73
2022/04/02 01:59:50;;;;;;;1.60;1.50;;;1.80;98.20;;;;;;5045298;28;20477;-73
2022/04/02 02:02:20;;;;;;;1.60;1.47;;;1.80;98.20;;;;;;5042547;28;20466;-73
2022/04/02 02:04:47;;;;;;;1.60;1.50;;;1.70;98.20;;;;;;5048062;28;20569;-73
2022/04/02 02:07:14;;;;;;;1.60;1.40;;;1.70;98.20;;;;;;5048275;28;20458;-73
2022/04/02 02:09:42;;;;;;;1.73;1.63;;;1.70;98.20;;;;;;5047703;28;20538;-73
2022/04/02 02:12:11;;;;;;;1.60;1.50;;;1.70;98.20;;;;;;5050950;28;20458;-73
2022/04/02 02:14:41;;;;;;;1.70;1.60;;;1.70;98.20;;;;;;5047508;28;20482;-73
2022/04/02 02:17:07;;;;;;;1.80;1.70;;;1.70;98.20;;;;;;5045562;28;20473;-73
2022/04/02 02:19:34;;;;;;;1.60;1.50;;;1.70;98.20;;;;;;5047985;28;20470;-73
2022/04/02 02:22:01;;;;;;;1.60;1.50;;;1.60;98.20;;;;;;5042627;28;20481;-73
2022/04/02 02:24:28;;;;;;;1.60;1.50;;;1.60;98.20;;;;;;5047632;28;20990;-73
2022/04/02 02:26:56;;;;;;;1.60;1.50;;;1.60;98.20;;;;;;5045637;28;20465;-73
2022/04/02 02:29:24;;;;;;;1.60;1.50;;;1.60;98.20;;;;;;5039362;28;20466;-73
2022/04/02 02:31:54;;;;;;;1.60;1.40;;;1.60;98.20;;;;;;5038501;28;20488;-74
2022/04/02 02:37:05;;;;;;;1.67;1.57;;;1.60;98.20;;;;;;5046234;28;20465;-73
2022/04/02 02:39:33;;;;;;;1.60;1.47;;;1.70;98.20;;;;;;5050111;28;20500;-74
2022/04/02 02:42:01;;;;;;;1.60;1.50;;;1.70;98.20;;;;;;5050828;28;20546;-73
2022/04/02 02:44:28;;;;;;;1.60;1.47;;;1.70;98.20;;;;;;5048876;28;20486;-73
2022/04/02 02:46:56;;;;;;;1.60;1.50;;;1.70;98.20;;;;;;5049917;28;21183;-74
2022/04/02 02:49:23;;;;;;;1.60;1.50;;;1.70;98.20;;;;;;5047865;28;20457;-74
2022/04/02 02:51:49;;;;;;;1.60;1.50;;;1.70;98.20;;;;;;5040460;28;20491;-74
2022/04/02 02:54:16;;;;;;;1.70;1.60;;;1.70;98.20;;;;;;5046805;28;20486;-74
2022/04/02 02:56:43;;;;;;;1.60;1.50;;;1.70;98.20;;;;;;5047110;28;20462;-73
2022/04/02 02:59:10;;;;;;;1.60;1.50;;;1.80;98.20;;;;;;5046952;28;20616;-74
2022/04/02 03:01:38;;;;;;;1.60;1.50;;;1.80;98.20;;;;;;5044466;28;20459;-74
2022/04/02 03:04:08;;;;;;;1.60;1.50;;;1.80;98.20;;;;;;5047095;28;20482;-74
2022/04/02 03:06:35;;;;;;;1.60;1.50;;;1.80;98.20;;;;;;5042660;28;20963;-74
2022/04/02 03:09:03;;;;;;;1.60;1.50;;;1.80;98.20;;;;;;5047603;28;20540;-74
2022/04/02 03:11:30;;;;;;;1.70;1.60;;;1.80;98.20;;;;;;5045269;28;20868;-74
2022/04/02 03:13:56;;;;;;;1.60;1.50;;;1.80;98.20;;;;;;5055562;28;20490;-74
2022/04/02 03:16:23;;;;;;;1.60;1.50;;;1.90;98.20;;;;;;5043354;28;20471;-74
2022/04/02 03:18:50;;;;;;;1.60;1.50;;;1.90;98.20;;;;;;5057113;28;20949;-74
2022/04/02 03:21:19;;;;;;;1.60;1.50;;;1.90;98.20;;;;;;5047321;28;20462;-74
2022/04/02 03:23:46;;;;;;;1.60;1.50;;;1.90;98.20;;;;;;5040647;28;20513;-74
2022/04/02 03:26:12;;;;;;;1.60;1.40;;;1.90;98.20;;;;;;5039339;28;20472;-74
2022/04/02 03:28:39;;;;;;;1.60;1.40;;;1.90;98.20;;;;;;5037334;28;20861;-74
2022/04/02 03:31:07;;;;;;;1.60;1.40;;;1.90;98.20;;;;;;5042974;28;20513;-74
2022/04/02 03:33:35;;;;;;;1.60;1.50;;;2.00;98.20;;;;;;5047609;28;20482;-74
2022/04/02 03:36:03;;;;;;;1.70;1.60;;;2.00;98.20;;;;;;5050321;28;20867;-74
2022/04/02 03:38:31;;;;;;;1.60;1.50;;;2.00;98.20;;;;;;5051069;28;20462;-74
2022/04/02 03:40:58;;;;;;;1.60;1.40;;;2.00;98.20;;;;;;5054240;28;20457;-74
2022/04/02 03:43:27;;;;;;;1.60;1.50;;;2.00;98.20;;;;;;5055661;28;20482;-74
2022/04/02 03:47:07;;;;;;;1.60;1.50;;;2.00;98.20;;;;;;5050139;28;20463;-74
2022/04/02 03:48:42;;;;;;;1.70;1.60;;;2.00;98.20;;;;;;5049034;28;20489;-74
2022/04/02 03:51:09;;;;;;;1.60;1.50;;;2.00;98.20;;;;;;5047762;28;21264;-74
2022/04/02 03:53:38;;;;;;;1.67;1.57;;;2.00;98.20;;;;;;5050959;28;20489;-74
2022/04/02 03:56:07;;;;;;;1.60;1.40;;;2.00;98.20;;;;;;5049461;28;20962;-74
2022/04/02 03:58:35;;;;;;;1.60;1.50;;;2.00;98.20;;;;;;5050597;28;20482;-74
2022/04/02 04:01:01;;;;;;;1.60;1.50;;;2.00;98.20;;;;;;5046753;28;20459;-74
2022/04/02 04:03:28;;;;;;;1.60;1.40;;;2.00;98.20;;;;;;5050584;28;20494;-74
2022/04/02 04:05:55;;;;;;;1.60;1.40;;;2.00;98.20;;;;;;5049547;28;20463;-74
2022/04/02 04:08:21;;;;;;;1.60;1.47;;;2.00;98.20;;;;;;5047794;28;20469;-74
2022/04/02 04:10:50;;;;;;;1.60;1.50;;;2.00;98.20;;;;;;5048008;28;20496;-74
2022/04/02 04:13:18;;;;;;;1.60;1.50;;;2.00;98.20;;;;;;5062338;28;20476;-74
2022/04/02 04:15:44;;;;;;;1.77;1.67;;;2.00;98.20;;;;;;5049583;28;20466;-74
2022/04/02 04:18:11;;;;;;;1.60;1.47;;;2.00;98.20;;;;;;5045611;28;20552;-74
2022/04/02 04:20:39;;;;;;;1.60;1.40;;;2.00;98.20;;;;;;5049319;28;20454;-74
2022/04/02 04:23:07;;;;;;;1.60;1.50;;;2.00;98.20;;;;;;5048586;28;20857;-74
2022/04/02 04:25:35;;;;;;;1.60;1.50;;;2.00;98.20;;;;;;5049945;28;20515;-74
2022/04/02 04:28:03;;;;;;;1.60;1.50;;;2.00;98.20;;;;;;5046449;28;20477;-74
2022/04/02 04:30:30;;;;;;;1.67;1.57;;;2.00;98.20;;;;;;5048317;28;20458;-74
2022/04/02 04:32:58;;;;;;;1.70;1.60;;;2.00;98.20;;;;;;5048641;28;20857;-74
2022/04/02 04:35:25;;;;;;;1.60;1.50;;;2.00;98.20;;;;;;5050341;28;20497;-74
2022/04/02 04:37:53;;;;;;;1.60;1.50;;;2.00;98.20;;;;;;5049160;28;20462;-74
2022/04/02 04:40:20;;;;;;;1.60;1.50;;;2.00;98.20;;;;;;5055068;28;20461;-75
2022/04/02 04:42:47;;;;;;;1.60;1.47;;;2.00;98.20;;;;;;5056881;28;20511;-74
2022/04/02 04:45:16;;;;;;;1.60;1.40;;;2.00;98.20;;;;;;5043829;28;20986;-74
2022/04/02 04:47:47;;;;;;;1.60;1.47;;;1.90;98.20;;;;;;5047588;28;20466;-74
2022/04/02 04:50:15;;;;;;;1.60;1.50;;;1.90;98.20;;;;;;5044820;28;20465;-74
2022/04/02 04:52:42;;;;;;;1.70;1.60;;;2.00;98.20;;;;;;5047184;28;20492;-74
2022/04/02 04:55:11;;;;;;;1.77;1.67;;;2.00;98.20;;;;;;5049399;28;20473;-74
2022/04/02 04:57:38;;;;;;;1.70;1.60;;;2.00;98.20;;;;;;5043832;28;20504;-74
2022/04/02 05:00:06;;;;;;;1.60;1.40;;;2.00;98.20;;;;;;5049199;28;20450;-74
2022/04/02 05:02:35;;;;;;;1.60;1.40;;;2.00;98.20;;;;;;5047324;28;20870;-74
2022/04/02 05:05:04;;;;;;;1.70;1.60;;;2.00;98.20;;;;;;5049662;28;20477;-74
2022/04/02 05:07:31;;;;;;;1.60;1.50;;;2.00;98.20;;;;;;5049379;28;20454;-74
2022/04/02 05:09:58;;;;;;;1.60;1.50;;;2.00;98.20;;;;;;5045418;28;20466;-74
2022/04/02 05:12:25;;;;;;;1.53;1.40;;;2.00;98.20;;;;;;5055507;28;20489;-74
2022/04/02 05:14:51;;;;;;;1.60;1.50;;;1.90;98.20;;;;;;5049806;28;20470;-74
2022/04/02 05:17:18;;;;;;;1.60;1.43;;;1.90;98.20;;;;;;5043015;28;20459;-74
2022/04/02 05:19:48;;;;;;;1.60;1.50;;;2.00;98.20;;;;;;5049176;28;20458;-74
2022/04/02 05:22:14;;;;;;;1.63;1.53;;;1.90;98.20;;;;;;5042016;28;20447;-75
2022/04/02 05:24:41;;;;;;;1.60;1.50;;;1.90;98.20;;;;;;5048354;28;20514;-74
2022/04/02 05:27:09;;;;;;;1.60;1.40;;;1.90;98.20;;;;;;5047676;28;20866;-74
2022/04/02 05:29:36;;;;;;;1.60;1.50;;;1.90;98.20;;;;;;5048674;28;20982;-74
2022/04/02 05:32:04;;;;;;;1.60;1.40;;;1.90;98.20;;;;;;5043659;28;20489;-75
2022/04/02 05:34:31;;;;;;;1.60;1.40;;;1.90;98.20;;;;;;5049105;28;20495;-74
2022/04/02 05:36:59;;;;;;;1.60;1.50;;;1.90;98.20;;;;;;5046414;28;20764;-74
2022/04/02 05:39:26;;;;;;;1.60;1.40;;;1.90;98.20;;;;;;5048709;28;20470;-74
2022/04/02 05:41:53;;;;;;;1.60;1.50;;;1.90;98.20;;;;;;5053197;28;20459;-76
2022/04/02 05:44:20;;;;;;;1.60;1.40;;;2.00;98.20;;;;;;5053142;28;20521;-75
2022/04/02 05:46:47;;;;;;;1.60;1.40;;;1.90;98.20;;;;;;5048597;28;20463;-74
2022/04/02 05:49:14;;;;;;;1.60;1.50;;;2.00;98.20;;;;;;5048242;28;20462;-74
2022/04/02 05:51:42;;;;;;;1.60;1.47;;;2.00;98.20;;;;;;5045484;28;20482;-74
2022/04/02 05:54:10;;;;;;;1.60;1.50;;;2.00;98.20;;;;;;5045814;28;20945;-76
2022/04/02 05:56:38;;;;;;;1.67;1.57;;;2.00;98.20;;;;;;5048074;28;20466;-76
2022/04/02 05:59:06;;;;;;;1.60;1.50;;;2.00;98.20;;;;;;5048903;28;21137;-77
2022/04/02 06:01:32;;;;;;;1.63;1.53;;;2.00;98.20;;;;;;5046033;28;20489;-76
2022/04/02 06:03:59;;;;;;;1.60;1.50;;;2.00;98.20;;;;;;5054311;28;20489;-75
2022/04/02 06:06:27;;;;;;;1.60;1.40;;;2.00;98.20;;;;;;5044048;28;20946;-74
2022/04/02 06:08:55;;;;;;;1.70;1.60;;;2.00;98.20;;;;;;5049180;28;20597;-74
2022/04/02 06:11:23;;;;;;;1.63;1.53;;;2.10;98.20;;;;;;5051924;28;20881;-74
2022/04/02 06:13:51;;;;;;;1.67;1.57;;;2.10;98.20;;;;;;5043437;28;20485;-73
2022/04/02 06:16:18;;;;;;;1.60;1.50;;;2.10;98.20;;;;;;5047467;28;20462;-73
2022/04/02 06:18:45;;;;;;;1.60;1.50;;;2.20;98.20;;;;;;5049428;28;20905;-73
2022/04/02 06:21:13;;;;;;;1.60;1.40;;;2.20;98.20;;;;;;5045999;28;20957;-73
2022/04/02 06:23:41;;;;;;;1.53;1.40;;;2.20;98.20;;;;;;5049139;28;20477;-73
2022/04/02 06:26:08;;;;;;;1.60;1.40;;;2.20;98.20;;;;;;5036669;28;20566;-73
2022/04/02 06:28:37;;;;;;;1.60;1.40;;;2.20;98.20;;;;;;5040000;28;20462;-73
2022/04/02 06:31:04;;;;;;;1.60;1.50;;;2.20;98.20;;;;;;5045595;28;20954;-73
2022/04/02 06:33:33;;;;;;;1.60;1.50;;;2.20;98.20;;;;;;5048354;28;20517;-73
2022/04/02 06:36:01;;;;;;;1.70;1.60;;;2.20;98.20;;;;;;5045319;28;20645;-75
2022/04/02 06:38:28;;;;;;;1.60;1.40;;;2.20;98.20;;;;;;5051693;28;20528;-74
2022/04/02 06:40:55;;;;;;;1.60;1.40;;;2.20;98.20;;;;;;5040566;28;20458;-75
2022/04/02 06:43:22;;;;;;;1.80;1.70;;;2.30;98.20;;;;;;5047198;28;20486;-75
2022/04/02 06:45:50;;;;;;;1.60;1.50;;;2.30;98.20;;;;;;5047457;28;20498;-73
2022/04/02 06:48:17;;;;;;;1.80;1.70;;;2.30;98.20;;;;;;5044644;28;20470;-74
2022/04/02 06:50:44;;;;;;;1.60;1.50;;;2.30;98.20;;;;;;5047035;28;20463;-73
2022/04/02 06:53:11;;;;;;;1.60;1.40;;;2.30;98.20;;;;;;5042085;28;21007;-75
2022/04/02 06:55:38;;;;;;;1.60;1.40;;;2.30;98.20;;;;;;5043411;28;20634;-73
2022/04/02 06:58:05;;;;;;;1.60;1.43;;;2.30;98.20;;;;;;5046385;28;20992;-75
2022/04/02 07:00:32;;;;;;;1.60;1.40;;;2.40;98.20;;;;;;5046250;28;20504;-74
2022/04/02 07:03:00;;;;;;;2.40;2.17;;;2.40;98.20;;;;;;5044513;28;20478;-76
2022/04/02 07:05:27;;;;;;;1.70;1.60;;;2.50;98.20;;;;;;5047109;28;20802;-75
2022/04/02 07:07:54;;;;;;;1.60;1.40;;;2.50;98.20;;;;;;5045479;28;20817;-73
2022/04/02 07:10:21;;;;;;;1.60;1.40;;;2.50;98.20;;;;;;5045231;28;20527;-76
2022/04/02 07:12:48;;;;;;;1.60;1.30;;;2.50;98.20;;;;;;5031430;28;20487;-76
2022/04/02 07:15:14;;;;;;;1.60;1.40;;;2.50;98.20;;;;;;5047974;28;20818;-75
2022/04/02 07:17:42;;;;;;;1.60;1.40;;;2.60;98.20;;;;;;5047339;28;20466;-73
2022/04/02 07:20:12;;;;;;;1.60;1.50;;;2.60;98.20;;;;;;5044881;28;20462;-75
2022/04/02 07:22:42;;;;;;;1.60;1.40;;;2.60;98.20;;;;;;5046245;28;20967;-73
2022/04/02 07:25:12;;;;;;;1.60;1.40;;;2.70;98.20;;;;;;5047032;28;20906;-73
2022/04/02 07:27:39;;;;;;;1.60;1.50;;;2.70;98.20;;;;;;5045151;28;21017;-73
2022/04/02 07:30:07;;;;;;;1.60;1.40;;;2.70;98.20;;;;;;5046594;28;20466;-73
2022/04/02 07:32:34;;;;;;;1.60;1.40;;;2.70;98.20;;;;;;5044415;28;20980;-74
2022/04/02 07:35:01;;;;;;;1.60;1.40;;;2.80;97.60;;;;;;5040515;28;20458;-75
2022/04/02 07:37:40;;;;;;;1.60;1.40;;;2.70;97.60;;;;;;5040357;28;20462;-75
2022/04/02 07:40:10;;;;;;;1.60;1.50;;;2.80;97.70;;;;;;5032925;28;21012;-74
2022/04/02 07:42:51;;;;;;;1.60;1.47;;;2.80;97.90;;;;;;5044594;28;20486;-77
2022/04/02 07:45:26;;;;;;;1.60;1.50;;;2.90;97.70;;;;;;5039183;28;20538;-76
2022/04/02 07:47:56;;;;;;;1.57;1.40;;;2.90;97.20;;;;;;5041368;28;20466;-74
2022/04/02 07:50:25;;;;;;;1.60;1.40;;;3.00;97.50;;;;;;5041321;28;20466;-74
2022/04/02 07:52:55;;;;;;;1.70;1.60;;;3.00;97.10;;;;;;5040364;28;20909;-74
2022/04/02 07:55:23;;;;;;;1.60;1.40;;;3.10;97.30;;;;;;5045574;28;20453;-75
2022/04/02 07:57:52;;;;;;;1.67;1.57;;;3.10;96.00;;;;;;5044316;28;20485;-73
2022/04/02 08:00:20;;;;;;;1.60;1.40;;;3.10;96.30;;;;;;5043412;28;20455;-73
2022/04/02 08:02:50;;;;;;;1.60;1.30;;;3.10;95.80;;;;;;5046466;28;20471;-77
2022/04/02 08:05:19;;;;;;;1.57;1.40;;;3.10;95.50;;;;;;5046194;28;20462;-73
2022/04/02 08:07:49;;;;;;;1.60;1.40;;;3.10;95.20;;;;;;5045110;28;20549;-73
2022/04/02 08:10:19;;;;;;;1.60;1.30;;;3.10;95.70;;;;;;5043677;28;20507;-74
2022/04/02 08:12:46;;;;;;;1.57;1.30;;;3.20;95.60;;;;;;5041372;28;20577;-73
2022/04/02 08:15:16;;;;;;;1.60;1.40;;;3.30;96.50;;;;;;5046640;28;20518;-73
2022/04/02 08:17:44;;;;;;;1.57;1.40;;;3.40;95.40;;;;;;5044676;28;20458;-74
2022/04/02 08:20:15;;;;;;;1.60;1.40;;;3.40;94.60;;;;;;5046832;28;20489;-74
2022/04/02 08:22:49;;;;;;;1.60;1.47;;;3.40;94.60;;;;;;5048615;28;20652;-75
2022/04/02 08:25:18;;;;;;;1.60;1.40;;;3.40;94.10;;;;;;5038801;28;20539;-73
2022/04/02 08:27:55;;;;;;;1.60;1.40;;;3.50;94.70;;;;;;5042714;28;20970;-77
2022/04/02 08:30:31;;;;;;;1.60;1.40;;;3.50;95.30;;;;;;5044899;28;20856;-73
2022/04/02 08:33:25;;;;;;;1.60;1.40;;;3.60;95.00;;;;;;5043207;28;20510;-75
2022/04/02 08:36:00;;;;;;;1.60;1.30;;;3.70;94.90;;;;;;5045928;28;20551;-75
2022/04/02 08:38:39;;;;;;;1.73;1.63;;;3.80;93.50;;;;;;5045161;28;20470;-75
2022/04/02 08:41:58;;;;;;;1.60;1.40;;;3.80;94.50;;;;;;5041910;28;20466;-75
2022/04/02 08:44:49;;;;;;;1.60;1.40;;;3.90;94.00;;;;;;5044216;28;20486;-73
2022/04/02 08:47:30;;;;;;;1.60;1.40;;;4.00;94.40;;;;;;5047616;28;20581;-76
2022/04/02 08:50:07;;;;;;;1.60;1.50;;;4.10;93.60;;;;;;5048835;28;20462;-78
2022/04/02 08:52:51;;;;;;;1.60;1.30;;;4.10;91.90;;;;;;5041341;28;21175;-76
2022/04/02 08:55:18;;;;;;;1.60;1.40;;;4.10;93.20;;;;;;5047765;28;21005;-76
2022/04/02 08:58:09;;;;;;;1.53;1.30;;;4.30;92.60;;;;;;5042187;28;21040;-74
2022/04/02 09:00:41;;;;;;;1.57;1.30;;;4.30;92.60;;;;;;5047332;28;20873;-76
2022/04/02 09:03:44;;;;;;;1.60;1.30;;;4.40;92.30;;;;;;5045920;28;20541;-75
2022/04/02 09:06:45;;;;;;;1.50;1.20;;;4.50;91.40;;;;;;5014382;28;20462;-76
2022/04/02 09:09:23;;;;;;;1.60;1.30;;;4.50;91.70;;;;;;5042021;28;20475;-76
2022/04/02 09:12:15;;;;;;;1.60;1.30;;;4.50;90.80;;;;;;5042014;28;20590;-75
2022/04/02 09:15:12;;;;;;;1.60;1.40;;;4.60;91.40;;;;;;5043460;28;21311;-75
2022/04/02 09:17:50;;;;;;;1.60;1.30;;;4.80;91.50;;;;;;5041166;28;20473;-74
2022/04/02 09:20:47;;;;;;;1.53;1.30;;;4.70;89.30;;;;;;5043319;28;20965;-74
2022/04/02 09:23:16;;;;;;;1.60;1.40;;;4.80;90.60;;;;;;5041591;28;20485;-72
2022/04/02 09:26:22;;;;;;;1.57;1.30;;;4.80;89.90;;;;;;5043187;28;20470;-74
2022/04/02 09:29:10;;;;;;;1.57;1.30;;;4.80;89.40;;;;;;5044020;28;20465;-74
2022/04/02 09:32:23;;;;;;;1.53;1.30;;;4.80;89.50;;;;;;5041368;28;20469;-74
2022/04/02 09:35:32;;;;;;;1.57;1.30;;;4.70;89.30;;;;;;5042330;28;20861;-74
2022/04/02 09:38:32;;;;;;;1.53;1.30;;;4.70;89.00;;;;;;4973520;28;20548;-75
2022/04/02 09:41:11;;;;;;;1.53;1.30;;;4.60;88.80;;;;;;4966303;28;20462;-75
2022/04/02 09:43:47;;;;;;;1.60;1.30;;;4.50;89.70;;;;;;5019922;28;20548;-74
2022/04/02 09:46:32;;;;;;;1.60;1.50;;;4.60;89.80;;;;;;5045584;28;20900;-74
2022/04/02 09:49:08;;;;;;;1.57;1.40;;;4.70;90.70;;;;;;5044685;28;20975;-73
2022/04/02 09:51:36;;;;;;;1.60;1.30;;;4.80;89.30;;;;;;5039755;28;20464;-74
2022/04/02 09:54:05;;;;;;;1.60;1.40;;;4.80;89.60;;;;;;5045260;28;20494;-76
2022/04/02 09:56:36;;;;;;;1.60;1.30;;;4.90;89.80;;;;;;5044583;28;20466;-75
2022/04/02 09:59:09;;;;;;;1.60;1.40;;;4.90;90.40;;;;;;5042626;28;20631;-75
2022/04/02 10:01:39;;;;;;;1.53;1.40;;;4.90;89.90;;;;;;5062789;22;20505;-76
2022/04/02 10:04:38;;;;;;;1.60;1.30;;;4.90;89.40;;;;;;5038772;28;20463;-75
2022/04/02 10:07:12;;;;;;;1.57;1.30;;;4.90;89.70;;;;;;5044077;28;20471;-75
2022/04/02 10:09:41;;;;;;;1.53;1.30;;;5.00;89.40;;;;;;5040812;28;20462;-75
2022/04/02 10:12:11;;;;;;;1.57;1.30;;;5.10;89.40;;;;;;5023276;28;20595;-75
2022/04/02 10:14:42;;;;;;;1.50;1.30;;;5.20;88.90;;;;;;5023030;28;20790;-75
2022/04/02 10:17:09;;;;;;;1.57;1.20;;;5.20;88.30;;;;;;5023685;28;20487;-76
2022/04/02 10:19:39;;;;;;;1.57;1.30;;;5.30;89.10;;;;;;5022987;28;20979;-76
2022/04/02 10:22:08;;;;;;;1.60;1.40;;;5.40;89.00;;;;;;5022812;28;20499;-76
2022/04/02 10:24:39;;;;;;;1.50;1.20;;;5.40;88.10;;;;;;5025664;28;20456;-75
2022/04/02 10:27:10;;;;;;;1.60;1.40;;;5.30;86.70;;;;;;5019598;28;20470;-75
2022/04/02 10:30:05;;;;;;;1.60;1.40;;;5.40;87.60;;;;;;5020534;28;20470;-76
2022/04/02 10:32:48;;;;;;;1.57;1.30;;;5.40;86.30;;;;;;5021562;28;20893;-75
2022/04/02 10:35:16;;;;;;;1.57;1.30;;;5.40;85.50;;;;;;5018064;28;20836;-75
2022/04/02 10:37:49;;;;;;;1.60;1.40;;;5.40;87.40;;;;;;5023762;28;20483;-76
2022/04/02 10:40:19;;;;;;;1.60;1.20;;;5.50;88.10;;;;;;5023355;28;20470;-77
2022/04/02 10:42:52;;;;;;;1.57;1.20;;;5.60;87.70;;;;;;5017603;28;20492;-75
2022/04/02 10:45:20;;;;;;;1.50;1.20;;;5.80;88.90;;;;;;5019344;28;20700;-74
2022/04/02 10:47:48;;;;;;;1.50;1.20;;;5.90;87.60;;;;;;5023322;28;20974;-74
2022/04/02 10:50:19;;;;;;;1.60;1.40;;;6.00;86.60;;;;;;5022978;28;20471;-74
2022/04/02 10:52:48;;;;;;;1.53;1.20;;;6.10;85.90;;;;;;5019870;28;20522;-74
2022/04/02 10:55:17;;;;;;;1.50;1.40;;;5.90;85.40;;;;;;5020558;28;20466;-76
2022/04/02 10:57:45;;;;;;;1.60;1.20;;;5.80;85.50;;;;;;5019841;28;20468;-75
2022/04/02 11:00:13;;;;;;;1.57;1.30;;;5.70;85.50;;;;;;5023202;28;20499;-76
2022/04/02 11:02:41;;;;;;;1.60;1.37;;;5.80;87.00;;;;;;5023004;28;21009;-76
2022/04/02 11:05:10;;;;;;;1.60;1.30;;;5.90;85.70;;;;;;5024623;28;21111;-76
2022/04/02 11:07:42;;;;;;;1.50;1.20;;;6.10;85.60;;;;;;5022592;28;20474;-78
2022/04/02 11:10:13;;;;;;;1.53;1.30;;;6.30;85.10;;;;;;5020149;28;20835;-76
2022/04/02 11:12:44;;;;;;;1.60;1.30;;;6.40;84.60;;;;;;5020833;28;20561;-76
2022/04/02 11:15:14;;;;;;;1.50;1.30;;;6.60;83.30;;;;;;5023639;28;20499;-76
2022/04/02 11:17:43;;;;;;;1.60;1.40;;;6.60;83.40;;;;;;5023176;28;20840;-76
2022/04/02 11:20:15;;;;;;;1.57;1.20;;;6.80;84.70;;;;;;5020690;28;20525;-76
2022/04/02 11:23:13;;;;;;;1.60;1.30;;;6.90;82.70;;;;;;5020386;28;20514;-77
2022/04/02 11:25:46;;;;;;;1.60;1.30;;;7.00;81.50;;;;;;5019743;28;20729;-76
2022/04/02 11:28:15;;;;;;;1.53;1.20;;;7.00;82.60;;;;;;5021979;28;20467;-76
2022/04/02 11:30:43;;;;;;;1.53;1.20;;;7.10;82.70;;;;;;5024041;28;20458;-76
2022/04/02 11:33:13;;;;;;;1.53;1.20;;;7.10;81.90;;;;;;5023052;28;20493;-76
2022/04/02 11:35:44;;;;;;;1.50;1.20;;;7.10;81.10;;;;;;5022765;28;20499;-75
2022/04/02 11:38:30;;;;;;;1.53;1.20;;;7.10;81.10;;;;;;5022484;28;20456;-74
2022/04/02 11:41:08;;;;;;;1.53;1.20;;;7.10;81.50;;;;;;5023106;28;20484;-75
2022/04/02 11:43:36;;;;;;;1.53;1.30;;;6.90;81.80;;;;;;5020846;28;20455;-76
2022/04/02 11:46:04;;;;;;;4.17;3.00;;;6.70;81.50;;;;;;5018621;28;20479;-74
2022/04/02 11:48:33;;;;;;;1.57;1.20;;;6.40;82.10;;;;;;5020318;28;20468;-74
2022/04/02 11:51:13;;;;;;;1.53;1.20;;;6.10;83.80;;;;;;5013119;28;20495;-75
2022/04/02 11:53:42;;;;;;;1.57;1.30;;;6.00;84.20;;;;;;5016791;28;20704;-77
2022/04/02 11:56:27;;;;;;;1.60;1.50;;;5.90;85.50;;;;;;5019976;28;20494;-77
2022/04/02 11:58:55;;;;;;;1.53;1.30;;;5.80;88.00;;;;;;5022709;28;20520;-75
2022/04/02 12:01:22;;;;;;;1.60;1.50;;;5.70;88.00;;;;;;5021602;28;20974;-76
2022/04/02 12:04:12;;;;;;;1.57;1.30;;;5.80;88.20;;;;;;5023727;28;20860;-75
2022/04/02 12:06:39;;;;;;;1.50;1.20;;;5.80;87.40;;;;;;5022910;28;20463;-76
2022/04/02 12:09:19;;;;;;;1.50;1.10;;;6.00;87.80;;;;;;5026484;28;20967;-75
2022/04/02 12:11:51;;;;;;;1.50;1.20;;;6.10;85.40;;;;;;5021977;28;20497;-75
2022/04/02 12:14:33;;;;;;;1.57;1.30;;;6.20;85.30;;;;;;5025750;28;20483;-75
2022/04/02 12:17:02;;;;;;;1.50;1.20;;;6.50;87.00;;;;;;5022672;28;20463;-76
2022/04/02 12:19:40;;;;;;;1.60;1.27;;;6.70;87.20;;;;;;5026703;28;20855;-76
2022/04/02 12:22:22;;;;;;;1.57;1.30;;;6.80;85.60;;;;;;5022721;28;20632;-76
2022/04/02 12:24:53;;;;;;;1.53;1.27;;;6.80;85.00;;;;;;5024434;28;20469;-74
2022/04/02 12:27:21;;;;;;;1.50;1.20;;;6.70;84.30;;;;;;5018726;28;21085;-76
2022/04/02 12:29:50;;;;;;;1.60;1.30;;;6.70;85.30;;;;;;5022631;28;20459;-76
2022/04/02 12:32:28;;;;;;;1.50;1.20;;;6.50;88.10;;;;;;5022138;28;20493;-76
2022/04/02 12:35:01;;;;;;;1.60;1.30;;;6.50;90.00;;;;;;5023467;28;21108;-80
2022/04/02 12:37:30;;;;;;;2.40;2.20;;;6.40;90.00;;;;;;5027682;28;20463;-77
2022/04/02 12:40:00;;;;;;;1.50;1.30;;;6.50;90.50;;;;;;5027143;28;20551;-78
2022/04/02 12:42:37;;;;;;;1.50;1.20;;;6.60;89.90;;;;;;5021312;28;20511;-76
2022/04/02 12:45:12;;;;;;;1.50;1.20;;;6.70;90.10;;;;;;5027744;28;20469;-77
2022/04/02 12:47:39;;;;;;;1.50;1.20;;;6.60;90.00;;;;;;5025035;28;20471;-75
2022/04/02 12:50:14;;;;;;;1.50;1.20;;;6.60;89.90;;;;;;5025678;28;20982;-75
2022/04/02 12:52:45;;;;;;;1.50;1.20;;;6.60;89.70;;;;;;5024868;28;20482;-77
2022/04/02 12:55:20;;;;;;;1.50;1.13;;;6.50;90.20;;;;;;5030447;28;20495;-78
2022/04/02 12:58:05;;;;;;;1.50;1.20;;;6.50;90.00;;;;;;5027619;28;20526;-76
2022/04/02 13:00:35;;;;;;;1.60;1.20;;;6.60;91.30;;;;;;5022700;28;20459;-76
2022/04/02 13:03:05;;;;;;;1.50;1.20;;;6.70;90.70;;;;;;5021633;28;20941;-75
2022/04/02 13:05:47;;;;;;;1.53;1.20;;;6.70;89.20;;;;;;5025396;28;20470;-81
2022/04/02 13:08:31;;;;;;;1.53;1.30;;;6.60;89.20;;;;;;5029452;28;20813;-75
2022/04/02 13:11:00;;;;;;;1.60;1.30;;;6.40;89.20;;;;;;5022021;28;21007;-78
2022/04/02 13:13:43;;;;;;;1.60;1.23;;;6.20;89.60;;;;;;5027696;28;20475;-78
2022/04/02 13:16:14;;;;;;;1.50;1.20;;;6.00;90.80;;;;;;5022427;28;20475;-77
2022/04/02 13:21:41;;;;;;;1.50;1.10;;;6.00;91.70;;;;;;5025486;28;20470;-77
2022/04/02 13:24:28;;;;;;;1.50;1.20;;;6.00;91.20;;;;;;5030856;28;20463;-75
2022/04/02 13:27:22;;;;;;;1.50;1.20;;;5.90;91.20;;;;;;5021389;28;20467;-77